Time;durP1;ratioP1;P1;durP2;ratioP2;P2;SDS_P1;SDS_P2;PMS_P1;PMS_P2;Temp;Humidity;BMP_temperature;BMP_pressure;BME280_temperature;BME280_humidity;BME280_pressure;Samples;Min_cycle;Max_cycle;Signal;HPM_P1;HPM_P2
2021/09/01 00:00:40;;;;;;;4.38;2.90;;;21.50;69.50;;;;;;5073239;28;20061;-62
2021/09/01 00:03:07;;;;;;;3.58;2.75;;;21.50;69.50;;;;;;5073652;28;20033;-62
2021/09/01 00:05:33;;;;;;;3.33;2.42;;;21.40;69.50;;;;;;5073863;28;20044;-62
2021/09/01 00:07:59;;;;;;;3.35;2.72;;;21.40;69.80;;;;;;5073893;28;20055;-62
2021/09/01 00:10:26;;;;;;;3.95;2.63;;;21.40;70.10;;;;;;5073714;28;20020;-62
2021/09/01 00:12:52;;;;;;;4.18;2.90;;;21.40;70.30;;;;;;5073235;28;20033;-62
2021/09/01 00:15:19;;;;;;;4.57;3.05;;;21.40;70.60;;;;;;5054779;28;20492;-62
2021/09/01 00:17:45;;;;;;;4.78;2.85;;;21.40;70.90;;;;;;5072326;28;20045;-62
2021/09/01 00:20:12;;;;;;;4.32;3.28;;;21.30;70.90;;;;;;5072639;28;20051;-62
2021/09/01 00:22:39;;;;;;;5.38;3.15;;;21.40;71.10;;;;;;5073584;28;20029;-62
2021/09/01 00:25:07;;;;;;;6.70;3.42;;;21.40;71.20;;;;;;5073201;28;20040;-63
2021/09/01 00:27:34;;;;;;;5.68;3.47;;;21.30;71.30;;;;;;5072562;28;20378;-63
2021/09/01 00:30:00;;;;;;;6.13;4.35;;;21.30;71.50;;;;;;5073315;28;20078;-63
2021/09/01 00:32:27;;;;;;;7.70;3.47;;;21.30;71.60;;;;;;5073632;28;20488;-61
2021/09/01 00:34:53;;;;;;;6.72;3.70;;;21.30;71.70;;;;;;5071942;28;20044;-62
2021/09/01 00:37:20;;;;;;;4.47;3.63;;;21.30;71.60;;;;;;5072358;28;20222;-62
2021/09/01 00:39:47;;;;;;;7.53;3.90;;;21.30;71.70;;;;;;5037579;28;20063;-62
2021/09/01 00:42:14;;;;;;;6.90;3.25;;;21.30;71.50;;;;;;5037905;28;20041;-63
2021/09/01 00:44:40;;;;;;;6.25;3.08;;;21.30;71.20;;;;;;5072679;28;20039;-68
2021/09/01 00:47:07;;;;;;;7.35;3.20;;;21.30;71.20;;;;;;5072860;28;20037;-62
2021/09/01 00:49:34;;;;;;;5.70;3.15;;;21.30;71.20;;;;;;5072871;28;20036;-63
2021/09/01 00:52:02;;;;;;;6.40;3.25;;;21.30;71.10;;;;;;5072287;28;20044;-72
2021/09/01 00:54:31;;;;;;;4.35;3.35;;;21.30;71.10;;;;;;5071869;28;20048;-63
2021/09/01 00:57:04;;;;;;;4.32;2.90;;;21.20;70.90;;;;;;5073325;28;20123;-63
2021/09/01 00:59:38;;;;;;;4.40;3.00;;;21.20;70.80;;;;;;5073884;28;20373;-62
2021/09/01 01:02:05;;;;;;;3.63;2.85;;;21.20;70.50;;;;;;5073991;28;20028;-62
2021/09/01 01:04:33;;;;;;;5.70;3.50;;;21.20;70.40;;;;;;5054083;28;20484;-69
2021/09/01 01:07:07;;;;;;;4.18;3.00;;;21.20;70.40;;;;;;5072691;28;20043;-63
2021/09/01 01:09:35;;;;;;;4.82;2.70;;;21.20;70.50;;;;;;5072722;28;20476;-62
2021/09/01 01:12:20;;;;;;;3.80;2.75;;;21.20;70.50;;;;;;5072898;28;20477;-62
2021/09/01 01:14:50;;;;;;;5.60;3.25;;;21.20;70.70;;;;;;5071948;28;20044;-62
2021/09/01 01:17:18;;;;;;;4.25;2.72;;;21.20;70.90;;;;;;5072467;28;20385;-63
2021/09/01 01:19:49;;;;;;;5.97;3.13;;;21.20;71.10;;;;;;5072904;28;20064;-61
2021/09/01 01:22:17;;;;;;;4.13;3.30;;;21.20;71.30;;;;;;5054017;28;20033;-62
2021/09/01 01:24:47;;;;;;;4.45;2.78;;;21.20;71.40;;;;;;5054585;28;20035;-62
2021/09/01 01:27:40;;;;;;;4.97;3.60;;;21.10;71.70;;;;;;5054329;28;20408;-62
2021/09/01 01:30:09;;;;;;;5.82;4.20;;;21.10;72.10;;;;;;5061542;28;20067;-63
2021/09/01 01:32:38;;;;;;;5.28;3.22;;;21.10;72.20;;;;;;5071461;28;20041;-63
2021/09/01 01:35:05;;;;;;;3.83;3.03;;;21.10;72.60;;;;;;5072643;28;20476;-68
2021/09/01 01:37:32;;;;;;;5.00;3.47;;;21.10;72.60;;;;;;5072356;28;20032;-63
2021/09/01 01:39:58;;;;;;;7.72;3.30;;;21.10;72.80;;;;;;5071126;28;20049;-62
2021/09/01 01:42:25;;;;;;;6.53;3.38;;;21.10;72.90;;;;;;5072268;28;20031;-62
2021/09/01 01:44:51;;;;;;;4.70;3.25;;;21.10;72.90;;;;;;5072316;28;20535;-62
2021/09/01 01:47:18;;;;;;;4.82;3.00;;;21.10;73.00;;;;;;5054406;28;20048;-62
2021/09/01 01:49:44;;;;;;;5.53;3.85;;;21.10;72.90;;;;;;5072271;28;20039;-61
2021/09/01 01:52:10;;;;;;;4.80;3.67;;;21.00;72.80;;;;;;5072145;28;20036;-64
2021/09/01 01:54:37;;;;;;;5.28;3.80;;;21.10;73.10;;;;;;5054476;28;20032;-63
2021/09/01 01:57:04;;;;;;;4.75;2.97;;;21.10;73.10;;;;;;5072303;28;20056;-62
2021/09/01 01:59:30;;;;;;;3.97;3.40;;;21.10;73.00;;;;;;5072253;28;20025;-62
2021/09/01 02:01:57;;;;;;;5.78;3.60;;;21.10;73.20;;;;;;5072111;28;20033;-62
2021/09/01 02:04:23;;;;;;;6.00;3.58;;;21.10;73.30;;;;;;5071720;28;20196;-62
2021/09/01 02:06:49;;;;;;;4.38;3.78;;;21.00;73.40;;;;;;5053879;28;20049;-62
2021/09/01 02:09:16;;;;;;;4.43;3.40;;;21.00;73.40;;;;;;5071669;28;20480;-62
2021/09/01 02:12:01;;;;;;;4.78;3.28;;;20.90;73.70;;;;;;5072162;28;20032;-62
2021/09/01 02:14:27;;;;;;;5.57;3.83;;;21.00;73.70;;;;;;5072124;28;20492;-62
2021/09/01 02:16:54;;;;;;;4.82;3.40;;;20.90;73.80;;;;;;5072027;28;20036;-62
2021/09/01 02:19:20;;;;;;;9.13;3.53;;;20.90;73.90;;;;;;5071799;28;20473;-61
2021/09/01 02:21:47;;;;;;;4.35;3.45;;;20.90;74.00;;;;;;5072131;28;20033;-62
2021/09/01 02:24:13;;;;;;;7.00;3.88;;;20.90;73.90;;;;;;5052884;28;20489;-63
2021/09/01 02:26:39;;;;;;;6.63;3.80;;;20.90;74.10;;;;;;5071289;28;20056;-64
2021/09/01 02:29:06;;;;;;;10.82;3.88;;;20.90;74.20;;;;;;5072075;28;20035;-63
2021/09/01 02:31:32;;;;;;;5.53;3.25;;;20.90;74.40;;;;;;5053115;28;20048;-61
2021/09/01 02:33:59;;;;;;;5.00;3.72;;;20.90;74.50;;;;;;5071963;28;20037;-61
2021/09/01 02:36:25;;;;;;;13.68;3.70;;;20.80;74.50;;;;;;5071807;28;20029;-62
2021/09/01 02:38:52;;;;;;;7.35;3.58;;;20.80;74.60;;;;;;5072217;28;20040;-62
2021/09/01 02:41:18;;;;;;;6.25;3.05;;;20.80;74.70;;;;;;5074893;28;20036;-61
2021/09/01 02:43:45;;;;;;;5.93;4.50;;;20.80;74.90;;;;;;5057777;28;20033;-62
2021/09/01 02:46:11;;;;;;;5.97;3.47;;;20.80;75.00;;;;;;5075173;28;20477;-62
2021/09/01 02:48:38;;;;;;;4.40;3.33;;;20.70;75.30;;;;;;5057479;28;20460;-62
2021/09/01 02:51:04;;;;;;;4.55;3.63;;;20.70;75.80;;;;;;5075166;28;20044;-62
2021/09/01 02:53:31;;;;;;;5.68;3.58;;;20.70;76.20;;;;;;5057395;28;20039;-61
2021/09/01 02:55:57;;;;;;;6.20;3.53;;;20.60;76.50;;;;;;5056836;28;20049;-62
2021/09/01 02:58:24;;;;;;;5.70;3.22;;;20.60;76.80;;;;;;5040248;28;20045;-62
2021/09/01 03:00:50;;;;;;;4.50;3.35;;;20.60;77.00;;;;;;5074944;28;20487;-63
2021/09/01 03:03:16;;;;;;;6.45;3.65;;;20.50;77.00;;;;;;5075124;28;20036;-63
2021/09/01 03:05:43;;;;;;;8.27;3.53;;;20.50;77.00;;;;;;5074498;28;20036;-64
2021/09/01 03:08:10;;;;;;;7.18;4.13;;;20.50;77.00;;;;;;5075011;28;20384;-62
2021/09/01 03:10:36;;;;;;;6.32;3.45;;;20.40;77.20;;;;;;5057234;28;20032;-62
2021/09/01 03:13:03;;;;;;;4.82;3.15;;;20.40;77.30;;;;;;5074590;28;20392;-62
2021/09/01 03:15:30;;;;;;;5.15;3.35;;;20.40;77.60;;;;;;5056179;28;20047;-62
2021/09/01 03:17:57;;;;;;;6.95;3.75;;;20.30;77.80;;;;;;5073960;28;20426;-63
2021/09/01 03:20:23;;;;;;;4.68;3.42;;;20.30;78.10;;;;;;5074560;28;20039;-62
2021/09/01 03:22:50;;;;;;;6.20;4.53;;;20.30;78.10;;;;;;5056686;28;20047;-62
2021/09/01 03:25:16;;;;;;;6.22;4.32;;;20.30;78.20;;;;;;5074895;28;20036;-63
2021/09/01 03:27:43;;;;;;;4.82;3.70;;;20.20;78.50;;;;;;5074356;28;20051;-63
2021/09/01 03:30:10;;;;;;;6.88;3.88;;;20.20;78.90;;;;;;5057259;28;20036;-62
2021/09/01 03:32:36;;;;;;;6.47;3.53;;;20.20;78.90;;;;;;5074547;28;20047;-63
2021/09/01 03:35:04;;;;;;;4.75;3.13;;;20.20;79.00;;;;;;5074466;28;20024;-63
2021/09/01 03:37:30;;;;;;;10.10;3.83;;;20.10;79.10;;;;;;5074374;28;20032;-62
2021/09/01 03:39:57;;;;;;;3.80;2.90;;;20.10;79.50;;;;;;5074409;28;20342;-61
2021/09/01 03:42:23;;;;;;;5.57;3.53;;;20.10;79.40;;;;;;5074382;28;20397;-64
2021/09/01 03:44:50;;;;;;;6.93;3.78;;;20.10;79.40;;;;;;5038829;28;20037;-62
2021/09/01 03:47:16;;;;;;;4.18;3.20;;;20.10;79.20;;;;;;5074367;28;20040;-63
2021/09/01 03:49:43;;;;;;;5.47;3.42;;;20.10;79.40;;;;;;5055227;28;20048;-72
2021/09/01 03:52:10;;;;;;;5.53;3.80;;;20.10;79.30;;;;;;5074465;28;20033;-62
2021/09/01 03:54:36;;;;;;;6.10;3.42;;;20.10;79.20;;;;;;5074020;28;20043;-61
2021/09/01 03:57:03;;;;;;;4.78;3.13;;;20.10;78.90;;;;;;5056196;28;20033;-62
2021/09/01 03:59:29;;;;;;;6.75;3.83;;;20.10;79.00;;;;;;5072980;28;20156;-61
2021/09/01 04:01:56;;;;;;;6.13;3.70;;;20.10;79.00;;;;;;5073708;28;20028;-63
2021/09/01 04:04:23;;;;;;;4.30;3.33;;;20.10;78.50;;;;;;5073506;28;20477;-63
2021/09/01 04:06:49;;;;;;;7.82;3.65;;;20.10;79.10;;;;;;5073857;28;20047;-62
2021/09/01 04:09:16;;;;;;;5.28;3.17;;;20.10;78.90;;;;;;5073382;28;20036;-61
2021/09/01 04:11:42;;;;;;;7.43;4.18;;;20.10;79.10;;;;;;5073915;28;20036;-62
2021/09/01 04:14:09;;;;;;;4.43;3.60;;;20.10;78.90;;;;;;5073329;28;20488;-63
2021/09/01 04:16:35;;;;;;;4.82;3.10;;;20.10;78.30;;;;;;5055799;28;20477;-62
2021/09/01 04:19:02;;;;;;;5.32;3.42;;;20.10;78.00;;;;;;5073440;28;20377;-62
2021/09/01 04:21:28;;;;;;;6.72;3.50;;;20.10;77.80;;;;;;5072323;28;20044;-62
2021/09/01 04:23:56;;;;;;;4.55;3.47;;;20.10;77.80;;;;;;5073437;28;20047;-62
2021/09/01 04:26:22;;;;;;;5.53;3.35;;;20.10;77.60;;;;;;5072881;28;20475;-62
2021/09/01 04:28:49;;;;;;;7.13;3.70;;;20.20;77.80;;;;;;5073298;28;20048;-63
2021/09/01 04:31:15;;;;;;;5.38;3.28;;;20.20;77.80;;;;;;5072981;28;20392;-61
2021/09/01 04:33:42;;;;;;;6.05;3.50;;;20.20;77.70;;;;;;5073151;28;20063;-61
2021/09/01 04:36:08;;;;;;;4.72;3.63;;;20.10;77.60;;;;;;5072735;28;20452;-61
2021/09/01 04:38:35;;;;;;;6.75;4.10;;;20.20;77.60;;;;;;5055341;28;20037;-62
2021/09/01 04:41:01;;;;;;;6.03;4.03;;;20.10;77.70;;;;;;5072684;28;20032;-62
2021/09/01 04:43:28;;;;;;;5.90;3.85;;;20.20;77.80;;;;;;5073174;28;20388;-62
2021/09/01 04:45:54;;;;;;;6.65;4.20;;;20.10;77.70;;;;;;5072310;28;20052;-62
2021/09/01 04:48:24;;;;;;;4.90;3.78;;;20.20;77.70;;;;;;5072868;28;20044;-62
2021/09/01 04:50:52;;;;;;;4.38;3.60;;;20.20;77.80;;;;;;5071951;28;20048;-64
2021/09/01 04:53:21;;;;;;;5.22;4.20;;;20.20;77.80;;;;;;5072322;28;20052;-64
2021/09/01 04:55:48;;;;;;;8.60;3.88;;;20.20;77.80;;;;;;5072888;28;20033;-74
2021/09/01 04:58:14;;;;;;;8.63;4.00;;;20.20;77.80;;;;;;5072716;28;20032;-63
2021/09/01 05:00:41;;;;;;;6.63;3.95;;;20.20;77.80;;;;;;5072700;28;20047;-63
2021/09/01 05:03:07;;;;;;;7.00;4.13;;;20.20;77.80;;;;;;5072432;28;20380;-62
2021/09/01 05:05:34;;;;;;;10.15;3.97;;;20.20;77.70;;;;;;5072764;28;20036;-62
2021/09/01 05:08:00;;;;;;;5.68;3.83;;;20.20;77.50;;;;;;5072426;28;20043;-63
2021/09/01 05:10:27;;;;;;;6.32;4.07;;;20.20;77.60;;;;;;5053773;28;20056;-63
2021/09/01 05:12:53;;;;;;;6.55;4.45;;;20.20;77.60;;;;;;5072300;28;20024;-64
2021/09/01 05:15:20;;;;;;;7.05;4.70;;;20.30;77.60;;;;;;5072504;28;20033;-63
2021/09/01 05:17:46;;;;;;;6.70;4.55;;;20.30;77.50;;;;;;5054089;28;20396;-62
2021/09/01 05:20:14;;;;;;;5.95;4.57;;;20.30;77.60;;;;;;5072572;28;20039;-62
2021/09/01 05:22:45;;;;;;;7.85;5.13;;;20.30;77.60;;;;;;5072442;28;20047;-63
2021/09/01 05:25:14;;;;;;;8.00;5.32;;;20.30;77.60;;;;;;5071524;28;20037;-62
2021/09/01 05:27:43;;;;;;;6.68;4.97;;;20.30;77.50;;;;;;5072334;28;20051;-62
2021/09/01 05:30:12;;;;;;;8.85;5.35;;;20.30;77.20;;;;;;5072430;28;20036;-62
2021/09/01 05:32:40;;;;;;;6.20;4.75;;;20.30;77.50;;;;;;5072768;28;20035;-62
2021/09/01 05:35:08;;;;;;;9.18;4.80;;;20.30;77.40;;;;;;5072147;28;20055;-62
2021/09/01 05:37:36;;;;;;;5.88;4.32;;;20.40;77.60;;;;;;5072551;28;20032;-62
2021/09/01 05:40:05;;;;;;;6.32;5.05;;;20.40;77.50;;;;;;5071905;28;20043;-63
2021/09/01 05:42:32;;;;;;;8.35;5.05;;;20.40;77.40;;;;;;5071744;28;20037;-62
2021/09/01 05:45:00;;;;;;;6.15;4.72;;;20.40;77.50;;;;;;5071974;28;20075;-62
2021/09/01 05:47:27;;;;;;;9.88;5.32;;;20.40;77.20;;;;;;5072198;28;20032;-62
2021/09/01 05:49:56;;;;;;;7.28;4.80;;;20.40;77.20;;;;;;5070811;28;20044;-62
2021/09/01 05:52:23;;;;;;;10.13;4.82;;;20.40;76.90;;;;;;5072077;28;20446;-62
2021/09/01 05:54:52;;;;;;;7.97;4.93;;;20.40;77.00;;;;;;5071782;28;20040;-62
2021/09/01 05:57:25;;;;;;;7.38;5.40;;;20.40;77.00;;;;;;5054568;28;20043;-62
2021/09/01 05:59:55;;;;;;;6.93;4.88;;;20.40;77.00;;;;;;5072399;28;20409;-62
2021/09/01 06:02:59;;;;;;;7.15;4.72;;;20.40;76.90;;;;;;5072300;28;20032;-62
2021/09/01 06:05:28;;;;;;;12.15;5.50;;;20.40;77.20;;;;;;5072248;28;20036;-63
2021/09/01 06:07:59;;;;;;;7.95;4.97;;;20.50;77.30;;;;;;5072229;28;20036;-63
2021/09/01 06:10:29;;;;;;;8.27;4.97;;;20.50;77.30;;;;;;5070690;28;20058;-63
2021/09/01 06:13:08;;;;;;;12.25;6.43;;;20.50;77.30;;;;;;5071369;28;20049;-63
2021/09/01 06:15:37;;;;;;;7.25;6.15;;;20.50;77.40;;;;;;5075307;28;20043;-63
2021/09/01 06:18:05;;;;;;;9.30;5.68;;;20.50;77.50;;;;;;5076042;28;20035;-63
2021/09/01 06:20:32;;;;;;;9.02;6.82;;;20.50;77.70;;;;;;5075622;28;20033;-62
2021/09/01 06:23:00;;;;;;;8.93;7.00;;;20.50;77.60;;;;;;5075808;28;20381;-62
2021/09/01 06:25:27;;;;;;;9.88;7.18;;;20.50;77.70;;;;;;5075560;28;20025;-63
2021/09/01 06:27:54;;;;;;;8.57;6.97;;;20.50;77.90;;;;;;5075685;28;20032;-63
2021/09/01 06:30:21;;;;;;;10.93;6.95;;;20.50;77.80;;;;;;5074801;28;20052;-63
2021/09/01 06:32:47;;;;;;;10.65;6.65;;;20.60;77.70;;;;;;5075448;28;20029;-63
2021/09/01 06:35:14;;;;;;;10.00;6.70;;;20.60;77.10;;;;;;5073625;28;20032;-63
2021/09/01 06:37:42;;;;;;;12.57;7.10;;;20.70;76.80;;;;;;5073876;28;20021;-62
2021/09/01 06:40:10;;;;;;;10.38;7.50;;;20.80;76.40;;;;;;5073712;28;20473;-62
2021/09/01 06:42:37;;;;;;;9.02;6.88;;;20.90;76.10;;;;;;5072827;28;20052;-62
2021/09/01 06:45:05;;;;;;;8.35;7.07;;;21.00;75.80;;;;;;5073870;28;20048;-62
2021/09/01 06:47:45;;;;;;;8.57;6.88;;;21.10;75.40;;;;;;5069817;28;20045;-62
2021/09/01 06:50:13;;;;;;;;;;;21.30;75.50;;;;;;5053215;28;20051;-62
2021/09/01 06:52:41;;;;;;;11.90;7.85;;;21.40;75.00;;;;;;5072753;28;19908;-63
2021/09/01 06:55:08;;;;;;;9.95;7.70;;;21.40;75.00;;;;;;5073482;28;20036;-62
2021/09/01 06:57:35;;;;;;;9.98;8.73;;;21.40;75.20;;;;;;5073447;28;20028;-62
2021/09/01 07:00:06;;;;;;;10.48;8.68;;;21.50;75.60;;;;;;5073821;28;20043;-62
2021/09/01 07:02:33;;;;;;;10.88;8.02;;;21.60;75.30;;;;;;5036086;28;20040;-65
2021/09/01 07:04:59;;;;;;;11.05;8.80;;;21.60;74.90;;;;;;5073710;28;20037;-62
2021/09/01 07:07:26;;;;;;;13.18;9.27;;;21.70;74.60;;;;;;5055609;28;20028;-64
2021/09/01 07:09:53;;;;;;;13.68;8.88;;;21.80;74.30;;;;;;5073179;28;20358;-65
2021/09/01 07:12:19;;;;;;;10.93;9.38;;;21.90;74.30;;;;;;5074583;28;20492;-65
2021/09/01 07:14:45;;;;;;;20.08;9.40;;;22.00;73.80;;;;;;5074869;28;20037;-63
2021/09/01 07:17:12;;;;;;;12.60;10.15;;;22.00;73.60;;;;;;5074653;28;20032;-64
2021/09/01 07:19:38;;;;;;;14.77;12.35;;;22.10;73.10;;;;;;5074557;28;20033;-64
2021/09/01 07:22:05;;;;;;;22.92;17.95;;;22.00;73.00;;;;;;5055746;28;20052;-64
2021/09/01 07:24:31;;;;;;;13.13;11.30;;;22.10;72.20;;;;;;5073678;28;20041;-64
2021/09/01 07:26:58;;;;;;;12.70;11.40;;;22.10;72.30;;;;;;5074268;28;20032;-63
2021/09/01 07:29:24;;;;;;;13.88;11.77;;;22.10;72.30;;;;;;5056360;28;20103;-61
2021/09/01 07:31:51;;;;;;;13.13;10.10;;;22.10;72.60;;;;;;5074543;28;20024;-61
2021/09/01 07:34:17;;;;;;;13.13;10.88;;;22.10;72.70;;;;;;5073451;28;20485;-60
2021/09/01 07:36:43;;;;;;;16.30;11.18;;;22.10;71.90;;;;;;5073370;28;20037;-61
2021/09/01 07:39:10;;;;;;;16.00;10.82;;;22.20;71.40;;;;;;5055259;28;20119;-60
2021/09/01 07:41:37;;;;;;;14.40;10.90;;;22.10;72.10;;;;;;5056334;28;20037;-60
2021/09/01 07:44:06;;;;;;;12.98;10.35;;;22.00;73.00;;;;;;5072857;28;20037;-60
2021/09/01 07:46:34;;;;;;;11.35;10.02;;;22.00;73.10;;;;;;5072857;28;20048;-59
2021/09/01 07:49:01;;;;;;;13.82;10.80;;;22.10;73.00;;;;;;5073392;28;20401;-62
2021/09/01 07:51:28;;;;;;;14.68;10.60;;;22.30;73.10;;;;;;5074099;28;20047;-66
2021/09/01 07:53:55;;;;;;;15.05;10.82;;;22.40;73.00;;;;;;5072989;28;20033;-61
2021/09/01 07:56:21;;;;;;;11.43;10.27;;;22.50;72.50;;;;;;5074515;28;20036;-61
2021/09/01 07:58:48;;;;;;;16.00;11.23;;;22.60;72.30;;;;;;5072770;28;20673;-61
2021/09/01 08:01:14;;;;;;;14.35;12.95;;;22.60;72.10;;;;;;5072758;28;20052;-61
2021/09/01 08:03:41;;;;;;;13.23;10.32;;;22.60;72.00;;;;;;5072867;28;20051;-61
2021/09/01 08:06:07;;;;;;;13.27;11.27;;;22.70;72.30;;;;;;5072303;28;20399;-61
2021/09/01 08:08:34;;;;;;;18.30;12.40;;;22.80;71.80;;;;;;5073799;28;20100;-61
2021/09/01 08:11:01;;;;;;;14.35;12.70;;;22.90;70.70;;;;;;5072395;28;20041;-61
2021/09/01 08:13:28;;;;;;;17.40;12.20;;;23.00;69.70;;;;;;5073210;28;20052;-61
2021/09/01 08:15:55;;;;;;;13.32;11.98;;;23.00;69.50;;;;;;5073735;28;20025;-61
2021/09/01 08:18:21;;;;;;;13.52;12.13;;;23.10;69.00;;;;;;5073634;28;20385;-61
2021/09/01 08:20:47;;;;;;;17.02;12.20;;;23.10;68.50;;;;;;5072503;28;20044;-61
2021/09/01 08:23:14;;;;;;;14.77;13.15;;;23.10;68.10;;;;;;5072805;28;20476;-61
2021/09/01 08:25:41;;;;;;;15.77;14.13;;;23.20;67.70;;;;;;5072281;28;20045;-61
2021/09/01 08:28:07;;;;;;;15.80;14.13;;;23.30;67.00;;;;;;5072306;28;20457;-61
2021/09/01 08:30:34;;;;;;;15.85;14.27;;;23.20;66.50;;;;;;5073309;28;20035;-61
2021/09/01 08:33:00;;;;;;;16.60;14.73;;;23.20;66.80;;;;;;5073362;28;20048;-70
2021/09/01 08:35:27;;;;;;;17.77;15.82;;;23.10;66.90;;;;;;5071576;28;20488;-61
2021/09/01 08:37:53;;;;;;;17.80;16.02;;;23.10;65.60;;;;;;5071726;28;20032;-61
2021/09/01 08:40:20;;;;;;;16.15;14.13;;;23.10;64.50;;;;;;5073073;28;20408;-61
2021/09/01 08:42:47;;;;;;;15.93;14.20;;;23.10;65.10;;;;;;5072044;28;20040;-61
2021/09/01 08:45:14;;;;;;;17.08;14.60;;;23.20;64.00;;;;;;5071738;28;20044;-61
2021/09/01 08:47:40;;;;;;;15.15;12.73;;;23.30;64.10;;;;;;5071823;28;20043;-61
2021/09/01 08:50:12;;;;;;;21.42;11.60;;;23.40;64.00;;;;;;5073874;28;20044;-60
2021/09/01 08:52:39;;;;;;;26.17;12.02;;;23.60;63.70;;;;;;5072212;28;20032;-60
2021/09/01 08:55:11;;;;;;;15.35;12.75;;;23.70;63.80;;;;;;5092705;28;20038;-61
2021/09/01 08:57:38;;;;;;;12.50;10.27;;;23.70;62.70;;;;;;5090611;28;20028;-60
2021/09/01 09:00:07;;;;;;;15.32;13.60;;;23.80;62.90;;;;;;5092291;28;20036;-59
2021/09/01 09:02:34;;;;;;;12.30;10.90;;;23.80;62.90;;;;;;5057219;28;20040;-59
2021/09/01 09:05:07;;;;;;;15.63;12.43;;;23.80;62.90;;;;;;5078685;28;20043;-59
2021/09/01 09:07:53;;;;;;;13.88;12.00;;;23.90;62.20;;;;;;5093032;28;20035;-59
2021/09/01 09:10:31;;;;;;;14.13;12.70;;;23.90;61.10;;;;;;5073216;28;20146;-59
2021/09/01 09:13:06;;;;;;;16.15;14.55;;;23.80;62.10;;;;;;5091491;28;20043;-59
2021/09/01 09:15:33;;;;;;;24.75;21.85;;;23.90;62.50;;;;;;5093280;28;20098;-59
2021/09/01 09:18:02;;;;;;;21.92;17.45;;;24.00;62.30;;;;;;5091221;28;20404;-59
2021/09/01 09:20:34;;;;;;;17.77;15.93;;;23.90;62.00;;;;;;5080847;28;20036;-59
2021/09/01 09:23:06;;;;;;;21.20;16.95;;;23.90;62.40;;;;;;5071457;28;20048;-59
2021/09/01 09:25:36;;;;;;;18.25;15.68;;;24.00;62.20;;;;;;5054548;28;20043;-58
2021/09/01 09:28:07;;;;;;;19.33;14.60;;;23.90;62.90;;;;;;5054048;28;20060;-59
2021/09/01 09:30:45;;;;;;;19.50;14.57;;;23.90;63.00;;;;;;5072113;28;20029;-60
2021/09/01 09:33:21;;;;;;;22.38;16.45;;;23.90;62.60;;;;;;5072227;28;20036;-59
2021/09/01 09:35:57;;;;;;;17.38;15.25;;;23.90;62.40;;;;;;5052423;28;20024;-58
2021/09/01 09:38:37;;;;;;;16.58;14.85;;;23.90;62.30;;;;;;5052039;28;20021;-59
2021/09/01 09:41:08;;;;;;;;;;;23.90;63.10;;;;;;5052958;28;20037;-58
2021/09/01 09:43:36;;;;;;;14.98;13.35;;;24.00;63.50;;;;;;5052561;28;20292;-66
2021/09/01 09:46:07;;;;;;;16.70;14.98;;;24.10;63.20;;;;;;5052140;28;20052;-62
2021/09/01 09:48:35;;;;;;;15.43;13.82;;;24.10;62.70;;;;;;5054234;28;20386;-60
2021/09/01 09:51:05;;;;;;;31.83;14.02;;;24.10;61.90;;;;;;5056968;28;20033;-59
2021/09/01 09:53:43;;;;;;;13.82;12.43;;;24.20;61.40;;;;;;5056155;28;20037;-59
2021/09/01 09:56:17;;;;;;;13.52;12.00;;;24.30;61.10;;;;;;5055116;28;20045;-60
2021/09/01 09:58:46;;;;;;;18.92;13.48;;;24.40;60.70;;;;;;5056219;28;20036;-59
2021/09/01 10:01:16;;;;;;;18.67;15.05;;;24.30;60.70;;;;;;5055909;28;20370;-60
2021/09/01 10:03:46;;;;;;;14.18;11.35;;;24.30;60.30;;;;;;5056564;28;20488;-60
2021/09/01 10:06:16;;;;;;;16.55;13.32;;;24.40;60.60;;;;;;5055504;28;20052;-60
2021/09/01 10:08:45;;;;;;;16.83;14.05;;;24.40;59.80;;;;;;5055827;28;20037;-60
2021/09/01 10:11:14;;;;;;;14.73;12.70;;;24.50;59.60;;;;;;5055857;28;20033;-60
2021/09/01 10:13:43;;;;;;;13.90;12.02;;;24.50;59.80;;;;;;5056232;28;20393;-60
2021/09/01 10:16:15;;;;;;;16.45;13.15;;;24.60;59.60;;;;;;5037438;28;20048;-59
2021/09/01 10:18:45;;;;;;;14.20;12.40;;;24.60;59.50;;;;;;5055972;28;20036;-59
2021/09/01 10:21:12;;;;;;;15.43;12.55;;;24.70;59.50;;;;;;5055964;28;20044;-59
2021/09/01 10:23:44;;;;;;;12.52;10.35;;;24.70;58.70;;;;;;5054405;28;20044;-60
2021/09/01 10:26:20;;;;;;;14.02;12.63;;;24.80;58.80;;;;;;5054761;28;20048;-60
2021/09/01 10:28:46;;;;;;;16.77;14.93;;;24.90;59.20;;;;;;5055708;28;20045;-60
2021/09/01 10:31:15;;;;;;;22.02;14.48;;;24.90;58.60;;;;;;5055172;28;20037;-61
2021/09/01 10:33:46;;;;;;;22.73;16.52;;;24.90;58.80;;;;;;5037963;28;20036;-60
2021/09/01 10:36:24;;;;;;;;;;;24.90;58.70;;;;;;5055527;28;20457;-61
2021/09/01 10:39:06;;;;;;;27.75;22.42;;;25.00;58.40;;;;;;5055068;28;20361;-60
2021/09/01 10:41:33;;;;;;;38.80;30.55;;;25.00;58.70;;;;;;5054193;28;20507;-60
2021/09/01 10:44:29;;;;;;;22.42;19.60;;;25.00;58.90;;;;;;5055074;28;20391;-63
2021/09/01 10:46:59;;;;;;;18.00;16.15;;;25.10;59.20;;;;;;5041222;28;20753;-64
2021/09/01 10:49:27;;;;;;;20.77;17.88;;;25.10;59.00;;;;;;5055052;28;20033;-64
2021/09/01 10:52:03;;;;;;;19.17;16.92;;;25.10;59.00;;;;;;5053944;28;20049;-64
2021/09/01 10:54:38;;;;;;;18.85;16.80;;;25.10;59.50;;;;;;5055188;28;20089;-64
2021/09/01 10:57:06;;;;;;;20.15;17.30;;;25.10;59.30;;;;;;5053907;28;20028;-65
2021/09/01 10:59:38;;;;;;;18.63;15.65;;;24.90;59.70;;;;;;5053890;28;20036;-64
2021/09/01 11:02:14;;;;;;;19.88;15.90;;;25.00;59.70;;;;;;5055117;28;20040;-64
2021/09/01 11:04:52;;;;;;;19.67;16.10;;;25.10;59.50;;;;;;5055013;28;20025;-65
2021/09/01 11:07:22;;;;;;;16.45;14.60;;;25.10;58.60;;;;;;5053198;28;20060;-64
2021/09/01 11:09:56;;;;;;;19.63;14.70;;;25.00;58.90;;;;;;5031024;28;20056;-64
2021/09/01 11:12:23;;;;;;;18.27;13.93;;;25.00;58.70;;;;;;5054940;28;20032;-65
2021/09/01 11:14:51;;;;;;;17.98;14.32;;;25.10;58.60;;;;;;5054324;28;20037;-59
2021/09/01 11:17:21;;;;;;;23.83;13.40;;;25.20;58.40;;;;;;5054601;28;20362;-59
2021/09/01 11:19:50;;;;;;;15.05;11.40;;;25.20;58.50;;;;;;5054748;28;20036;-59
2021/09/01 11:22:20;;;;;;;19.50;13.63;;;25.30;59.40;;;;;;5053970;28;20384;-59
2021/09/01 11:24:50;;;;;;;73.95;56.67;;;25.30;57.70;;;;;;5054626;28;20025;-59
2021/09/01 11:27:27;;;;;;;21.85;16.27;;;25.40;58.70;;;;;;5036371;28;20041;-58
2021/09/01 11:30:07;;;;;;;59.78;48.25;;;25.30;57.70;;;;;;5053632;28;20049;-59
2021/09/01 11:32:35;;;;;;;39.25;30.20;;;25.50;59.20;;;;;;5054445;28;20021;-60
2021/09/01 11:35:05;;;;;;;16.52;14.43;;;25.50;58.00;;;;;;5035861;28;20056;-63
2021/09/01 11:37:32;;;;;;;18.70;12.70;;;25.60;56.30;;;;;;5053721;28;20039;-62
2021/09/01 11:39:58;;;;;;;16.60;10.07;;;25.50;58.60;;;;;;5054107;28;20032;-61
2021/09/01 11:42:24;;;;;;;12.85;10.55;;;25.50;57.80;;;;;;5054314;28;20051;-61
2021/09/01 11:44:56;;;;;;;13.57;10.88;;;25.60;56.90;;;;;;5053266;28;20035;-61
2021/09/01 11:47:23;;;;;;;12.98;10.30;;;25.60;56.30;;;;;;5070583;28;20024;-62
2021/09/01 11:49:50;;;;;;;14.80;9.93;;;25.70;56.50;;;;;;5070027;28;20044;-63
2021/09/01 11:52:26;;;;;;;16.27;9.73;;;25.70;56.20;;;;;;5068730;28;20032;-63
2021/09/01 11:54:52;;;;;;;18.63;9.50;;;25.60;56.50;;;;;;5070391;28;20074;-62
2021/09/01 11:57:26;;;;;;;13.38;9.77;;;25.60;56.20;;;;;;5069275;28;20020;-60
2021/09/01 11:59:53;;;;;;;11.45;9.68;;;25.70;55.50;;;;;;5070922;28;20624;-60
2021/09/01 12:02:23;;;;;;;11.02;8.57;;;25.70;55.40;;;;;;5068411;28;20036;-60
2021/09/01 12:04:51;;;;;;;13.18;10.40;;;25.80;55.70;;;;;;5071902;28;20028;-60
2021/09/01 12:07:43;;;;;;;11.48;7.93;;;25.80;54.80;;;;;;5071626;28;20032;-59
2021/09/01 12:10:10;;;;;;;14.45;8.35;;;25.80;55.60;;;;;;5066334;28;20075;-59
2021/09/01 12:12:40;;;;;;;9.02;6.97;;;25.90;55.00;;;;;;5071060;28;20029;-59
2021/09/01 12:15:17;;;;;;;9.25;6.93;;;25.90;55.20;;;;;;5071923;28;20472;-60
2021/09/01 12:18:00;;;;;;;9.07;6.50;;;26.00;55.10;;;;;;5070371;28;20035;-63
2021/09/01 12:20:27;;;;;;;11.35;6.93;;;26.00;54.90;;;;;;5070168;28;20040;-66
2021/09/01 12:22:53;;;;;;;13.52;8.27;;;26.10;54.40;;;;;;5071454;28;20385;-63
2021/09/01 12:25:22;;;;;;;13.07;9.70;;;26.10;54.40;;;;;;5071894;28;20388;-63
2021/09/01 12:28:14;;;;;;;13.73;9.90;;;26.10;54.50;;;;;;5071673;28;20055;-61
2021/09/01 12:30:48;;;;;;;13.20;8.35;;;26.10;54.40;;;;;;5073160;28;20044;-64
2021/09/01 12:33:17;;;;;;;9.23;7.15;;;26.20;54.50;;;;;;5070630;28;20048;-62
2021/09/01 12:35:44;;;;;;;11.02;7.88;;;26.30;54.00;;;;;;5072142;28;20032;-61
2021/09/01 12:38:24;;;;;;;15.25;11.25;;;26.30;53.60;;;;;;5052293;28;20035;-59
2021/09/01 12:40:51;;;;;;;16.40;13.23;;;26.30;54.20;;;;;;5068970;28;20048;-59
2021/09/01 12:43:19;;;;;;;16.02;10.48;;;26.30;54.40;;;;;;5072127;28;20480;-59
2021/09/01 12:45:47;;;;;;;23.80;21.38;;;26.30;53.80;;;;;;5070649;28;20051;-60